Time;durP1;ratioP1;P1;durP2;ratioP2;P2;SDS_P1;SDS_P2;PMS_P1;PMS_P2;Temp;Humidity;BMP_temperature;BMP_pressure;BME280_temperature;BME280_humidity;BME280_pressure;Samples;Min_cycle;Max_cycle;Signal;HPM_P1;HPM_P2
2020/07/11 00:00:24;;;;;;;13.1;11.55;;;;;;;17.1;100;95316.65;;;;
2020/07/11 00:01:36;;;;;;;13.1;11.55;;;;;;;17.1;100;95316.65;;;;
2020/07/11 00:02:37;;;;;;;13.1;11.55;;;;;;;17.1;100;95316.65;;;;
2020/07/11 00:03:37;;;;;;;13.1;11.55;;;;;;;17.1;100;95316.65;;;;
2020/07/11 00:04:38;;;;;;;10.1;9.099999;;;;;;;17.19;100;95331.37;;;;
2020/07/11 00:05:39;;;;;;;10.1;9.099999;;;;;;;17.19;100;95331.37;;;;
2020/07/11 00:06:39;;;;;;;10.1;9.099999;;;;;;;17.19;100;95331.37;;;;
2020/07/11 00:07:40;;;;;;;10.1;9.099999;;;;;;;17.19;100;95331.37;;;;
2020/07/11 00:08:40;;;;;;;10.1;9.099999;;;;;;;17.19;100;95331.37;;;;
2020/07/11 00:09:41;;;;;;;10.1;9.099999;;;;;;;17.19;100;95331.37;;;;
2020/07/11 00:10:41;;;;;;;10.1;9.099999;;;;;;;17.19;100;95331.37;;;;
2020/07/11 00:11:42;;;;;;;10.1;9.099999;;;;;;;17.19;100;95331.37;;;;
2020/07/11 00:12:42;;;;;;;10.1;9.099999;;;;;;;17.19;100;95331.37;;;;
2020/07/11 00:13:43;;;;;;;10.1;9.099999;;;;;;;17.19;100;95331.37;;;;
2020/07/11 00:14:44;;;;;;;9.85;8.950001;;;;;;;17.08;100;95324.28;;;;
2020/07/11 00:15:44;;;;;;;9.85;8.950001;;;;;;;17.08;100;95324.28;;;;
2020/07/11 00:16:45;;;;;;;9.85;8.950001;;;;;;;17.08;100;95324.28;;;;
2020/07/11 00:17:45;;;;;;;9.85;8.950001;;;;;;;17.08;100;95324.28;;;;
2020/07/11 00:18:46;;;;;;;9.85;8.950001;;;;;;;17.08;100;95324.28;;;;
2020/07/11 00:19:46;;;;;;;9.85;8.950001;;;;;;;17.08;100;95324.28;;;;
2020/07/11 00:20:47;;;;;;;9.85;8.950001;;;;;;;17.08;100;95324.28;;;;
2020/07/11 00:21:47;;;;;;;9.85;8.950001;;;;;;;17.08;100;95324.28;;;;
2020/07/11 00:22:47;;;;;;;9.85;8.950001;;;;;;;17.08;100;95324.28;;;;
2020/07/11 00:24:20;;;;;;;9.85;8.950001;;;;;;;17.08;100;95324.28;;;;
2020/07/11 00:26:23;;;;;;;10.15;8.549999;;;;;;;16.96;100;95330.17;;;;
2020/07/11 00:35:50;;;;;;;9.299998;8;;;;;;;16.76;100;95340.67;;;;
2020/07/11 00:42:58;;;;;;;9.299998;8;;;;;;;16.76;100;95340.67;;;;
2020/07/11 00:45:13;;;;;;;9.299998;8;;;;;;;16.76;100;95340.67;;;;
2020/07/11 00:47:15;;;;;;;8.250002;7.25;;;;;;;16.63;100;95337.94;;;;
2020/07/11 00:52:49;;;;;;;8.250002;7.25;;;;;;;16.63;100;95337.94;;;;
2020/07/11 00:55:01;;;;;;;8.250002;7.25;;;;;;;16.63;100;95337.94;;;;
2020/07/11 01:01:04;;;;;;;9;7.45;;;;;;;16.5;100;95348.55;;;;
2020/07/11 01:02:08;;;;;;;9;7.45;;;;;;;16.5;100;95348.55;;;;
2020/07/11 01:03:09;;;;;;;9;7.45;;;;;;;16.5;100;95348.55;;;;
2020/07/11 01:04:09;;;;;;;9;7.45;;;;;;;16.5;100;95348.55;;;;
2020/07/11 01:05:10;;;;;;;9;7.45;;;;;;;16.5;100;95348.55;;;;
2020/07/11 01:06:11;;;;;;;9;7.45;;;;;;;16.5;100;95348.55;;;;
2020/07/11 01:07:11;;;;;;;9;7.45;;;;;;;16.5;100;95348.55;;;;
2020/07/11 01:08:12;;;;;;;9.35;8.399999;;;;;;;16.44;100;95356.28;;;;
2020/07/11 01:09:12;;;;;;;9.35;8.399999;;;;;;;16.44;100;95356.28;;;;
2020/07/11 01:10:13;;;;;;;9.35;8.399999;;;;;;;16.44;100;95356.28;;;;
2020/07/11 01:11:14;;;;;;;9.35;8.399999;;;;;;;16.44;100;95356.28;;;;
2020/07/11 01:12:14;;;;;;;9.35;8.399999;;;;;;;16.44;100;95356.28;;;;
2020/07/11 01:13:16;;;;;;;9.35;8.399999;;;;;;;16.44;100;95356.28;;;;
2020/07/11 01:14:18;;;;;;;9.35;8.399999;;;;;;;16.44;100;95356.28;;;;
2020/07/11 01:15:18;;;;;;;9.35;8.399999;;;;;;;16.44;100;95356.28;;;;
2020/07/11 01:16:19;;;;;;;9.35;8.399999;;;;;;;16.44;100;95356.28;;;;
2020/07/11 01:17:20;;;;;;;9.35;8.399999;;;;;;;16.44;100;95356.28;;;;
2020/07/11 01:18:21;;;;;;;9.1;8.200002;;;;;;;16.33;100;95360.22;;;;
2020/07/11 01:19:22;;;;;;;9.1;8.200002;;;;;;;16.33;100;95360.22;;;;
2020/07/11 01:20:22;;;;;;;9.1;8.200002;;;;;;;16.33;100;95360.22;;;;
2020/07/11 01:21:40;;;;;;;9.1;8.200002;;;;;;;16.33;100;95360.22;;;;
2020/07/11 01:22:43;;;;;;;9.1;8.200002;;;;;;;16.33;100;95360.22;;;;
2020/07/11 01:23:43;;;;;;;9.1;8.200002;;;;;;;16.33;100;95360.22;;;;
2020/07/11 01:24:44;;;;;;;9.1;8.200002;;;;;;;16.33;100;95360.22;;;;
2020/07/11 01:25:44;;;;;;;9.1;8.200002;;;;;;;16.33;100;95360.22;;;;
2020/07/11 01:26:45;;;;;;;9.1;8.200002;;;;;;;16.33;100;95360.22;;;;
2020/07/11 01:27:45;;;;;;;9.1;8.200002;;;;;;;16.33;100;95360.22;;;;
2020/07/11 01:28:46;;;;;;;9.25;8.099999;;;;;;;16.26;100;95365.12;;;;
2020/07/11 01:29:47;;;;;;;9.25;8.099999;;;;;;;16.26;100;95365.12;;;;
2020/07/11 01:30:47;;;;;;;9.25;8.099999;;;;;;;16.26;100;95365.12;;;;
2020/07/11 01:31:49;;;;;;;9.25;8.099999;;;;;;;16.26;100;95365.12;;;;
2020/07/11 01:32:52;;;;;;;9.25;8.099999;;;;;;;16.26;100;95365.12;;;;
2020/07/11 01:33:52;;;;;;;9.25;8.099999;;;;;;;16.26;100;95365.12;;;;
2020/07/11 01:35:01;;;;;;;9.25;8.099999;;;;;;;16.26;100;95365.12;;;;
2020/07/11 01:36:02;;;;;;;9.25;8.099999;;;;;;;16.26;100;95365.12;;;;
2020/07/11 01:37:03;;;;;;;9.25;8.099999;;;;;;;16.26;100;95365.12;;;;
2020/07/11 01:38:03;;;;;;;9.25;8.099999;;;;;;;16.26;100;95365.12;;;;
2020/07/11 01:39:06;;;;;;;9.25;8.099999;;;;;;;16.26;100;95365.12;;;;
2020/07/11 01:40:07;;;;;;;9.550001;8.649999;;;;;;;16.12;100;95367.93;;;;
2020/07/11 01:41:08;;;;;;;9.550001;8.649999;;;;;;;16.12;100;95367.93;;;;
2020/07/11 01:42:08;;;;;;;9.550001;8.649999;;;;;;;16.12;100;95367.93;;;;
2020/07/11 01:43:09;;;;;;;9.550001;8.649999;;;;;;;16.12;100;95367.93;;;;
2020/07/11 01:44:09;;;;;;;9.550001;8.649999;;;;;;;16.12;100;95367.93;;;;
2020/07/11 01:45:10;;;;;;;9.550001;8.649999;;;;;;;16.12;100;95367.93;;;;
2020/07/11 01:46:10;;;;;;;9.550001;8.649999;;;;;;;16.12;100;95367.93;;;;
2020/07/11 01:47:11;;;;;;;9.550001;8.649999;;;;;;;16.12;100;95367.93;;;;
2020/07/11 01:48:11;;;;;;;9.550001;8.649999;;;;;;;16.12;100;95367.93;;;;
2020/07/11 01:49:12;;;;;;;9.550001;8.649999;;;;;;;16.12;100;95367.93;;;;
2020/07/11 01:50:13;;;;;;;10;9;;;;;;;16.07;100;95360.69;;;;
2020/07/11 01:51:14;;;;;;;10;9;;;;;;;16.07;100;95360.69;;;;
2020/07/11 01:52:20;;;;;;;10;9;;;;;;;16.07;100;95360.69;;;;
2020/07/11 01:53:20;;;;;;;10;9;;;;;;;16.07;100;95360.69;;;;
2020/07/11 01:54:21;;;;;;;10;9;;;;;;;16.07;100;95360.69;;;;
2020/07/11 01:55:21;;;;;;;10;9;;;;;;;16.07;100;95360.69;;;;
2020/07/11 01:56:22;;;;;;;10;9;;;;;;;16.07;100;95360.69;;;;
2020/07/11 01:57:23;;;;;;;10;9;;;;;;;16.07;100;95360.69;;;;
2020/07/11 01:58:23;;;;;;;10;9;;;;;;;16.07;100;95360.69;;;;
2020/07/11 01:59:24;;;;;;;10;9;;;;;;;16.07;100;95360.69;;;;
2020/07/11 02:00:24;;;;;;;10;9;;;;;;;16.07;100;95360.69;;;;
2020/07/11 02:01:29;;;;;;;8.65;7.85;;;;;;;15.99;100;95358.89;;;;
2020/07/11 02:02:29;;;;;;;8.65;7.85;;;;;;;15.99;100;95358.89;;;;
2020/07/11 02:03:29;;;;;;;8.65;7.85;;;;;;;15.99;100;95358.89;;;;
2020/07/11 02:04:30;;;;;;;8.65;7.85;;;;;;;15.99;100;95358.89;;;;
2020/07/11 02:05:30;;;;;;;8.65;7.85;;;;;;;15.99;100;95358.89;;;;
2020/07/11 02:06:33;;;;;;;8.65;7.85;;;;;;;15.99;100;95358.89;;;;
2020/07/11 02:07:34;;;;;;;8.65;7.85;;;;;;;15.99;100;95358.89;;;;
2020/07/11 02:08:34;;;;;;;8.65;7.85;;;;;;;15.99;100;95358.89;;;;
2020/07/11 02:09:35;;;;;;;8.65;7.85;;;;;;;15.99;100;95358.89;;;;
2020/07/11 02:10:35;;;;;;;8.65;7.85;;;;;;;15.99;100;95358.89;;;;
2020/07/11 02:11:36;;;;;;;10.85;9.75;;;;;;;15.96;100;95371.69;;;;
2020/07/11 02:12:37;;;;;;;10.85;9.75;;;;;;;15.96;100;95371.69;;;;
2020/07/11 02:13:38;;;;;;;10.85;9.75;;;;;;;15.96;100;95371.69;;;;
2020/07/11 02:14:39;;;;;;;10.85;9.75;;;;;;;15.96;100;95371.69;;;;
2020/07/11 02:15:39;;;;;;;10.85;9.75;;;;;;;15.96;100;95371.69;;;;
2020/07/11 02:16:40;;;;;;;10.85;9.75;;;;;;;15.96;100;95371.69;;;;
2020/07/11 02:17:40;;;;;;;10.85;9.75;;;;;;;15.96;100;95371.69;;;;
2020/07/11 02:18:41;;;;;;;10.85;9.75;;;;;;;15.96;100;95371.69;;;;
2020/07/11 02:19:42;;;;;;;10.85;9.75;;;;;;;15.96;100;95371.69;;;;
2020/07/11 02:20:42;;;;;;;10.85;9.75;;;;;;;15.96;100;95371.69;;;;
2020/07/11 02:21:43;;;;;;;9.699999;8.800001;;;;;;;15.94;100;95386.68;;;;
2020/07/11 02:22:44;;;;;;;9.699999;8.800001;;;;;;;15.94;100;95386.68;;;;
2020/07/11 02:23:44;;;;;;;9.699999;8.800001;;;;;;;15.94;100;95386.68;;;;
2020/07/11 02:24:45;;;;;;;9.699999;8.800001;;;;;;;15.94;100;95386.68;;;;
2020/07/11 02:25:45;;;;;;;9.699999;8.800001;;;;;;;15.94;100;95386.68;;;;
2020/07/11 02:26:46;;;;;;;9.699999;8.800001;;;;;;;15.94;100;95386.68;;;;
2020/07/11 02:27:46;;;;;;;9.699999;8.800001;;;;;;;15.94;100;95386.68;;;;
2020/07/11 02:28:47;;;;;;;9.699999;8.800001;;;;;;;15.94;100;95386.68;;;;
2020/07/11 02:29:47;;;;;;;9.699999;8.800001;;;;;;;15.94;100;95386.68;;;;
2020/07/11 02:30:48;;;;;;;9.699999;8.800001;;;;;;;15.94;100;95386.68;;;;
2020/07/11 02:31:48;;;;;;;9.699999;8.800001;;;;;;;15.94;100;95386.68;;;;
2020/07/11 02:32:49;;;;;;;10.4;9.400002;;;;;;;15.92;100;95383.4;;;;
2020/07/11 02:33:50;;;;;;;10.4;9.400002;;;;;;;15.92;100;95383.4;;;;
2020/07/11 02:34:51;;;;;;;10.4;9.400002;;;;;;;15.92;100;95383.4;;;;
2020/07/11 02:35:51;;;;;;;10.4;9.400002;;;;;;;15.92;100;95383.4;;;;
2020/07/11 02:36:51;;;;;;;10.4;9.400002;;;;;;;15.92;100;95383.4;;;;
2020/07/11 02:37:52;;;;;;;10.4;9.400002;;;;;;;15.92;100;95383.4;;;;
2020/07/11 02:38:54;;;;;;;10.4;9.400002;;;;;;;15.92;100;95383.4;;;;
2020/07/11 02:39:54;;;;;;;10.4;9.400002;;;;;;;15.92;100;95383.4;;;;
2020/07/11 02:40:55;;;;;;;10.4;9.400002;;;;;;;15.92;100;95383.4;;;;
2020/07/11 02:41:55;;;;;;;10.4;9.400002;;;;;;;15.92;100;95383.4;;;;
2020/07/11 02:42:56;;;;;;;9.400001;8.5;;;;;;;15.85;100;95381.47;;;;
2020/07/11 02:43:56;;;;;;;9.400001;8.5;;;;;;;15.85;100;95381.47;;;;
2020/07/11 02:44:56;;;;;;;9.400001;8.5;;;;;;;15.85;100;95381.47;;;;
2020/07/11 02:45:57;;;;;;;9.400001;8.5;;;;;;;15.85;100;95381.47;;;;
2020/07/11 02:46:57;;;;;;;9.400001;8.5;;;;;;;15.85;100;95381.47;;;;
2020/07/11 02:47:58;;;;;;;9.400001;8.5;;;;;;;15.85;100;95381.47;;;;
2020/07/11 02:49:00;;;;;;;9.400001;8.5;;;;;;;15.85;100;95381.47;;;;
2020/07/11 02:50:00;;;;;;;9.400001;8.5;;;;;;;15.85;100;95381.47;;;;
2020/07/11 02:51:01;;;;;;;9.400001;8.5;;;;;;;15.85;100;95381.47;;;;
2020/07/11 02:52:01;;;;;;;9.400001;8.5;;;;;;;15.85;100;95381.47;;;;
2020/07/11 02:53:33;;;;;;;8.15;7.35;;;;;;;15.8;100;95361;;;;
2020/07/11 02:54:34;;;;;;;8.15;7.35;;;;;;;15.8;100;95361;;;;
2020/07/11 02:55:34;;;;;;;8.15;7.35;;;;;;;15.8;100;95361;;;;
2020/07/11 02:56:35;;;;;;;8.15;7.35;;;;;;;15.8;100;95361;;;;
2020/07/11 02:57:36;;;;;;;8.15;7.35;;;;;;;15.8;100;95361;;;;
2020/07/11 02:58:37;;;;;;;8.15;7.35;;;;;;;15.8;100;95361;;;;
2020/07/11 02:59:37;;;;;;;8.15;7.35;;;;;;;15.8;100;95361;;;;
2020/07/11 03:00:38;;;;;;;8.15;7.35;;;;;;;15.8;100;95361;;;;
2020/07/11 03:01:41;;;;;;;8.15;7.35;;;;;;;15.8;100;95361;;;;
2020/07/11 03:02:41;;;;;;;8.15;7.35;;;;;;;15.8;100;95361;;;;
2020/07/11 03:03:42;;;;;;;8.15;7.35;;;;;;;15.8;100;95361;;;;
2020/07/11 03:04:44;;;;;;;8.099999;7.3;;;;;;;15.71;100;95368.87;;;;
2020/07/11 03:05:45;;;;;;;8.099999;7.3;;;;;;;15.71;100;95368.87;;;;
2020/07/11 03:06:45;;;;;;;8.099999;7.3;;;;;;;15.71;100;95368.87;;;;
2020/07/11 03:07:46;;;;;;;8.099999;7.3;;;;;;;15.71;100;95368.87;;;;
2020/07/11 03:08:46;;;;;;;8.099999;7.3;;;;;;;15.71;100;95368.87;;;;
2020/07/11 03:09:47;;;;;;;8.099999;7.3;;;;;;;15.71;100;95368.87;;;;
2020/07/11 03:10:47;;;;;;;8.099999;7.3;;;;;;;15.71;100;95368.87;;;;
2020/07/11 03:11:48;;;;;;;8.099999;7.3;;;;;;;15.71;100;95368.87;;;;
2020/07/11 03:12:49;;;;;;;8.099999;7.3;;;;;;;15.71;100;95368.87;;;;
2020/07/11 03:13:51;;;;;;;8.099999;7.3;;;;;;;15.71;100;95368.87;;;;
2020/07/11 03:14:51;;;;;;;8.6;7.75;;;;;;;15.7;100;95366.83;;;;
2020/07/11 03:15:52;;;;;;;8.6;7.75;;;;;;;15.7;100;95366.83;;;;
2020/07/11 03:16:53;;;;;;;8.6;7.75;;;;;;;15.7;100;95366.83;;;;
2020/07/11 03:17:53;;;;;;;8.6;7.75;;;;;;;15.7;100;95366.83;;;;
2020/07/11 03:18:55;;;;;;;8.6;7.75;;;;;;;15.7;100;95366.83;;;;
2020/07/11 03:19:55;;;;;;;8.6;7.75;;;;;;;15.7;100;95366.83;;;;
2020/07/11 03:20:57;;;;;;;8.6;7.75;;;;;;;15.7;100;95366.83;;;;
2020/07/11 03:21:57;;;;;;;8.6;7.75;;;;;;;15.7;100;95366.83;;;;
2020/07/11 03:22:58;;;;;;;8.6;7.75;;;;;;;15.7;100;95366.83;;;;
2020/07/11 03:23:58;;;;;;;8.6;7.75;;;;;;;15.7;100;95366.83;;;;
2020/07/11 03:24:59;;;;;;;8.6;7.75;;;;;;;15.7;100;95366.83;;;;
2020/07/11 03:25:59;;;;;;;8.299999;7.55;;;;;;;15.61;100;95383.23;;;;
2020/07/11 03:27:00;;;;;;;8.299999;7.55;;;;;;;15.61;100;95383.23;;;;
2020/07/11 03:28:00;;;;;;;8.299999;7.55;;;;;;;15.61;100;95383.23;;;;
2020/07/11 03:29:05;;;;;;;8.299999;7.55;;;;;;;15.61;100;95383.23;;;;
2020/07/11 03:30:06;;;;;;;8.299999;7.55;;;;;;;15.61;100;95383.23;;;;
2020/07/11 03:31:07;;;;;;;8.299999;7.55;;;;;;;15.61;100;95383.23;;;;
2020/07/11 03:32:08;;;;;;;8.299999;7.55;;;;;;;15.61;100;95383.23;;;;
2020/07/11 03:33:08;;;;;;;8.299999;7.55;;;;;;;15.61;100;95383.23;;;;
2020/07/11 03:34:08;;;;;;;8.299999;7.55;;;;;;;15.61;100;95383.23;;;;
2020/07/11 03:35:09;;;;;;;8.299999;7.55;;;;;;;15.61;100;95383.23;;;;
2020/07/11 03:36:09;;;;;;;8.15;7.45;;;;;;;15.6;100;95392.5;;;;
2020/07/11 03:37:10;;;;;;;8.15;7.45;;;;;;;15.6;100;95392.5;;;;
2020/07/11 03:38:10;;;;;;;8.15;7.45;;;;;;;15.6;100;95392.5;;;;
2020/07/11 03:39:11;;;;;;;8.15;7.45;;;;;;;15.6;100;95392.5;;;;
2020/07/11 03:40:11;;;;;;;8.15;7.45;;;;;;;15.6;100;95392.5;;;;
2020/07/11 03:41:16;;;;;;;8.15;7.45;;;;;;;15.6;100;95392.5;;;;
2020/07/11 03:42:18;;;;;;;8.15;7.45;;;;;;;15.6;100;95392.5;;;;
2020/07/11 03:43:20;;;;;;;8.15;7.45;;;;;;;15.6;100;95392.5;;;;
2020/07/11 03:44:21;;;;;;;8.15;7.45;;;;;;;15.6;100;95392.5;;;;
2020/07/11 03:45:21;;;;;;;8.15;7.45;;;;;;;15.6;100;95392.5;;;;
2020/07/11 03:46:24;;;;;;;8.15;7.45;;;;;;;15.6;100;95392.5;;;;
2020/07/11 03:47:25;;;;;;;9.049999;8.150001;;;;;;;15.53;100;95388.78;;;;
2020/07/11 03:48:27;;;;;;;9.049999;8.150001;;;;;;;15.53;100;95388.78;;;;
2020/07/11 03:49:30;;;;;;;9.049999;8.150001;;;;;;;15.53;100;95388.78;;;;
2020/07/11 03:50:31;;;;;;;9.049999;8.150001;;;;;;;15.53;100;95388.78;;;;
2020/07/11 03:51:31;;;;;;;9.049999;8.150001;;;;;;;15.53;100;95388.78;;;;
2020/07/11 03:52:32;;;;;;;9.049999;8.150001;;;;;;;15.53;100;95388.78;;;;
2020/07/11 03:53:33;;;;;;;9.049999;8.150001;;;;;;;15.53;100;95388.78;;;;
2020/07/11 03:54:44;;;;;;;9.049999;8.150001;;;;;;;15.53;100;95388.78;;;;
2020/07/11 03:55:47;;;;;;;9.049999;8.150001;;;;;;;15.53;100;95388.78;;;;
2020/07/11 03:56:49;;;;;;;9.049999;8.150001;;;;;;;15.53;100;95388.78;;;;
2020/07/11 03:57:52;;;;;;;8.1;7.3;;;;;;;15.53;100;95387.84;;;;
2020/07/11 03:58:53;;;;;;;8.1;7.3;;;;;;;15.53;100;95387.84;;;;
2020/07/11 03:59:53;;;;;;;8.1;7.3;;;;;;;15.53;100;95387.84;;;;
2020/07/11 04:00:54;;;;;;;8.1;7.3;;;;;;;15.53;100;95387.84;;;;
2020/07/11 04:01:54;;;;;;;8.1;7.3;;;;;;;15.53;100;95387.84;;;;
2020/07/11 04:02:55;;;;;;;8.1;7.3;;;;;;;15.53;100;95387.84;;;;
2020/07/11 04:03:56;;;;;;;8.1;7.3;;;;;;;15.53;100;95387.84;;;;
2020/07/11 04:04:56;;;;;;;8.1;7.3;;;;;;;15.53;100;95387.84;;;;
2020/07/11 04:05:57;;;;;;;8.1;7.3;;;;;;;15.53;100;95387.84;;;;
2020/07/11 04:06:57;;;;;;;8.1;7.3;;;;;;;15.53;100;95387.84;;;;
2020/07/11 04:07:58;;;;;;;9.3;8.4;;;;;;;15.49;100;95386.88;;;;
2020/07/11 04:08:58;;;;;;;9.3;8.4;;;;;;;15.49;100;95386.88;;;;
2020/07/11 04:09:59;;;;;;;9.3;8.4;;;;;;;15.49;100;95386.88;;;;
2020/07/11 04:10:59;;;;;;;9.3;8.4;;;;;;;15.49;100;95386.88;;;;
2020/07/11 04:12:00;;;;;;;9.3;8.4;;;;;;;15.49;100;95386.88;;;;
2020/07/11 04:13:01;;;;;;;9.3;8.4;;;;;;;15.49;100;95386.88;;;;
2020/07/11 04:14:02;;;;;;;9.3;8.4;;;;;;;15.49;100;95386.88;;;;
2020/07/11 04:15:03;;;;;;;9.3;8.4;;;;;;;15.49;100;95386.88;;;;
2020/07/11 04:16:04;;;;;;;9.3;8.4;;;;;;;15.49;100;95386.88;;;;
2020/07/11 04:17:06;;;;;;;9.3;8.4;;;;;;;15.49;100;95386.88;;;;
2020/07/11 04:18:07;;;;;;;9.3;8.4;;;;;;;15.49;100;95386.88;;;;
2020/07/11 04:19:10;;;;;;;8.75;7.949999;;;;;;;15.52;100;95407.58;;;;
2020/07/11 04:20:10;;;;;;;8.75;7.949999;;;;;;;15.52;100;95407.58;;;;
2020/07/11 04:21:12;;;;;;;8.75;7.949999;;;;;;;15.52;100;95407.58;;;;
2020/07/11 04:22:13;;;;;;;8.75;7.949999;;;;;;;15.52;100;95407.58;;;;
2020/07/11 04:23:13;;;;;;;8.75;7.949999;;;;;;;15.52;100;95407.58;;;;
2020/07/11 04:24:14;;;;;;;8.75;7.949999;;;;;;;15.52;100;95407.58;;;;
2020/07/11 04:25:14;;;;;;;8.75;7.949999;;;;;;;15.52;100;95407.58;;;;
2020/07/11 04:26:15;;;;;;;8.75;7.949999;;;;;;;15.52;100;95407.58;;;;
2020/07/11 04:27:16;;;;;;;8.75;7.949999;;;;;;;15.52;100;95407.58;;;;
2020/07/11 04:28:16;;;;;;;8.75;7.949999;;;;;;;15.52;100;95407.58;;;;
2020/07/11 04:29:17;;;;;;;8.950001;8.049999;;;;;;;15.54;100;95403.64;;;;
2020/07/11 04:30:17;;;;;;;8.950001;8.049999;;;;;;;15.54;100;95403.64;;;;
2020/07/11 04:31:18;;;;;;;8.950001;8.049999;;;;;;;15.54;100;95403.64;;;;
2020/07/11 04:32:19;;;;;;;8.950001;8.049999;;;;;;;15.54;100;95403.64;;;;
2020/07/11 04:33:19;;;;;;;8.950001;8.049999;;;;;;;15.54;100;95403.64;;;;
2020/07/11 04:34:20;;;;;;;8.950001;8.049999;;;;;;;15.54;100;95403.64;;;;
2020/07/11 04:35:20;;;;;;;8.950001;8.049999;;;;;;;15.54;100;95403.64;;;;
2020/07/11 04:36:21;;;;;;;8.950001;8.049999;;;;;;;15.54;100;95403.64;;;;
2020/07/11 04:37:21;;;;;;;8.950001;8.049999;;;;;;;15.54;100;95403.64;;;;
2020/07/11 04:38:22;;;;;;;8.950001;8.049999;;;;;;;15.54;100;95403.64;;;;
2020/07/11 04:39:22;;;;;;;8.950001;8.049999;;;;;;;15.54;100;95403.64;;;;
2020/07/11 04:40:23;;;;;;;8.999999;7.75;;;;;;;15.57;100;95415.77;;;;
2020/07/11 04:41:23;;;;;;;8.999999;7.75;;;;;;;15.57;100;95415.77;;;;
2020/07/11 04:42:25;;;;;;;8.999999;7.75;;;;;;;15.57;100;95415.77;;;;
2020/07/11 04:43:26;;;;;;;8.999999;7.75;;;;;;;15.57;100;95415.77;;;;
2020/07/11 04:44:26;;;;;;;8.999999;7.75;;;;;;;15.57;100;95415.77;;;;
2020/07/11 04:45:26;;;;;;;8.999999;7.75;;;;;;;15.57;100;95415.77;;;;
2020/07/11 04:46:27;;;;;;;8.999999;7.75;;;;;;;15.57;100;95415.77;;;;
2020/07/11 04:47:28;;;;;;;8.999999;7.75;;;;;;;15.57;100;95415.77;;;;
2020/07/11 04:48:29;;;;;;;8.999999;7.75;;;;;;;15.57;100;95415.77;;;;
2020/07/11 04:49:31;;;;;;;8.999999;7.75;;;;;;;15.57;100;95415.77;;;;
2020/07/11 04:50:32;;;;;;;8.650001;7.799999;;;;;;;15.53;100;95419.26;;;;
2020/07/11 04:51:32;;;;;;;8.650001;7.799999;;;;;;;15.53;100;95419.26;;;;
2020/07/11 04:52:34;;;;;;;8.650001;7.799999;;;;;;;15.53;100;95419.26;;;;
2020/07/11 04:53:39;;;;;;;8.650001;7.799999;;;;;;;15.53;100;95419.26;;;;
2020/07/11 04:54:40;;;;;;;8.650001;7.799999;;;;;;;15.53;100;95419.26;;;;
2020/07/11 04:55:41;;;;;;;8.650001;7.799999;;;;;;;15.53;100;95419.26;;;;
2020/07/11 04:56:41;;;;;;;8.650001;7.799999;;;;;;;15.53;100;95419.26;;;;
2020/07/11 04:57:41;;;;;;;8.650001;7.799999;;;;;;;15.53;100;95419.26;;;;
2020/07/11 04:58:42;;;;;;;8.650001;7.799999;;;;;;;15.53;100;95419.26;;;;
2020/07/11 04:59:43;;;;;;;8.650001;7.799999;;;;;;;15.53;100;95419.26;;;;
2020/07/11 05:00:43;;;;;;;8.650001;7.799999;;;;;;;15.53;100;95419.26;;;;
2020/07/11 05:01:44;;;;;;;8.95;7.7;;;;;;;15.58;100;95431.56;;;;
2020/07/11 05:02:45;;;;;;;8.95;7.7;;;;;;;15.58;100;95431.56;;;;
2020/07/11 05:03:46;;;;;;;8.95;7.7;;;;;;;15.58;100;95431.56;;;;
2020/07/11 05:04:46;;;;;;;8.95;7.7;;;;;;;15.58;100;95431.56;;;;
2020/07/11 05:05:47;;;;;;;8.95;7.7;;;;;;;15.58;100;95431.56;;;;
2020/07/11 05:06:47;;;;;;;8.95;7.7;;;;;;;15.58;100;95431.56;;;;
2020/07/11 05:07:48;;;;;;;8.95;7.7;;;;;;;15.58;100;95431.56;;;;
2020/07/11 05:08:48;;;;;;;8.95;7.7;;;;;;;15.58;100;95431.56;;;;
2020/07/11 05:09:49;;;;;;;8.95;7.7;;;;;;;15.58;100;95431.56;;;;
2020/07/11 05:10:49;;;;;;;8.95;7.7;;;;;;;15.58;100;95431.56;;;;
2020/07/11 05:11:50;;;;;;;8.600001;7.700001;;;;;;;15.55;100;95422.42;;;;
2020/07/11 05:12:50;;;;;;;8.600001;7.700001;;;;;;;15.55;100;95422.42;;;;
2020/07/11 05:13:51;;;;;;;8.600001;7.700001;;;;;;;15.55;100;95422.42;;;;
2020/07/11 05:14:51;;;;;;;8.600001;7.700001;;;;;;;15.55;100;95422.42;;;;
2020/07/11 05:15:52;;;;;;;8.600001;7.700001;;;;;;;15.55;100;95422.42;;;;
2020/07/11 05:16:52;;;;;;;8.600001;7.700001;;;;;;;15.55;100;95422.42;;;;
2020/07/11 05:17:53;;;;;;;8.600001;7.700001;;;;;;;15.55;100;95422.42;;;;
2020/07/11 05:18:53;;;;;;;8.600001;7.700001;;;;;;;15.55;100;95422.42;;;;
2020/07/11 05:19:54;;;;;;;8.600001;7.700001;;;;;;;15.55;100;95422.42;;;;
2020/07/11 05:20:54;;;;;;;8.600001;7.700001;;;;;;;15.55;100;95422.42;;;;
2020/07/11 05:21:55;;;;;;;8.600001;7.700001;;;;;;;15.55;100;95422.42;;;;
2020/07/11 05:22:55;;;;;;;8.599999;7.799999;;;;;;;15.55;100;95418.87;;;;
2020/07/11 05:23:56;;;;;;;8.599999;7.799999;;;;;;;15.55;100;95418.87;;;;
2020/07/11 05:24:56;;;;;;;8.599999;7.799999;;;;;;;15.55;100;95418.87;;;;
2020/07/11 05:25:57;;;;;;;8.599999;7.799999;;;;;;;15.55;100;95418.87;;;;
2020/07/11 05:26:57;;;;;;;8.599999;7.799999;;;;;;;15.55;100;95418.87;;;;
2020/07/11 05:27:57;;;;;;;8.599999;7.799999;;;;;;;15.55;100;95418.87;;;;
2020/07/11 05:28:58;;;;;;;8.599999;7.799999;;;;;;;15.55;100;95418.87;;;;
2020/07/11 05:30:00;;;;;;;8.599999;7.799999;;;;;;;15.55;100;95418.87;;;;
2020/07/11 05:31:01;;;;;;;8.599999;7.799999;;;;;;;15.55;100;95418.87;;;;
2020/07/11 05:32:02;;;;;;;8.599999;7.799999;;;;;;;15.55;100;95418.87;;;;
2020/07/11 05:33:03;;;;;;;9.000002;8.200001;;;;;;;15.51;100;95421.42;;;;
2020/07/11 05:34:04;;;;;;;9.000002;8.200001;;;;;;;15.51;100;95421.42;;;;
2020/07/11 05:35:04;;;;;;;9.000002;8.200001;;;;;;;15.51;100;95421.42;;;;
2020/07/11 05:36:05;;;;;;;9.000002;8.200001;;;;;;;15.51;100;95421.42;;;;
2020/07/11 05:37:05;;;;;;;9.000002;8.200001;;;;;;;15.51;100;95421.42;;;;
2020/07/11 05:38:06;;;;;;;9.000002;8.200001;;;;;;;15.51;100;95421.42;;;;
2020/07/11 05:39:06;;;;;;;9.000002;8.200001;;;;;;;15.51;100;95421.42;;;;
2020/07/11 05:40:07;;;;;;;9.000002;8.200001;;;;;;;15.51;100;95421.42;;;;
2020/07/11 05:41:07;;;;;;;9.000002;8.200001;;;;;;;15.51;100;95421.42;;;;
2020/07/11 05:42:08;;;;;;;9.000002;8.200001;;;;;;;15.51;100;95421.42;;;;
2020/07/11 05:43:08;;;;;;;9.000002;8.200001;;;;;;;15.51;100;95421.42;;;;
2020/07/11 05:44:09;;;;;;;8.200001;7.1;;;;;;;15.6;100;95445.17;;;;
2020/07/11 05:45:10;;;;;;;8.200001;7.1;;;;;;;15.6;100;95445.17;;;;
2020/07/11 05:46:11;;;;;;;8.200001;7.1;;;;;;;15.6;100;95445.17;;;;
2020/07/11 05:47:12;;;;;;;8.200001;7.1;;;;;;;15.6;100;95445.17;;;;
2020/07/11 05:48:13;;;;;;;8.200001;7.1;;;;;;;15.6;100;95445.17;;;;
2020/07/11 05:49:14;;;;;;;8.200001;7.1;;;;;;;15.6;100;95445.17;;;;
2020/07/11 05:50:16;;;;;;;8.200001;7.1;;;;;;;15.6;100;95445.17;;;;
2020/07/11 05:51:17;;;;;;;8.200001;7.1;;;;;;;15.6;100;95445.17;;;;
2020/07/11 05:52:18;;;;;;;8.200001;7.1;;;;;;;15.6;100;95445.17;;;;
2020/07/11 05:53:18;;;;;;;8.200001;7.1;;;;;;;15.6;100;95445.17;;;;
2020/07/11 05:54:19;;;;;;;8.050001;7.05;;;;;;;15.57;100;95448.95;;;;
2020/07/11 05:55:19;;;;;;;8.050001;7.05;;;;;;;15.57;100;95448.95;;;;
2020/07/11 05:56:20;;;;;;;8.050001;7.05;;;;;;;15.57;100;95448.95;;;;
2020/07/11 05:57:21;;;;;;;8.050001;7.05;;;;;;;15.57;100;95448.95;;;;
2020/07/11 05:58:21;;;;;;;8.050001;7.05;;;;;;;15.57;100;95448.95;;;;
2020/07/11 05:59:21;;;;;;;8.050001;7.05;;;;;;;15.57;100;95448.95;;;;
2020/07/11 06:00:22;;;;;;;8.050001;7.05;;;;;;;15.57;100;95448.95;;;;
2020/07/11 06:01:22;;;;;;;8.050001;7.05;;;;;;;15.57;100;95448.95;;;;
2020/07/11 06:02:23;;;;;;;8.050001;7.05;;;;;;;15.57;100;95448.95;;;;
2020/07/11 06:03:23;;;;;;;8.050001;7.05;;;;;;;15.57;100;95448.95;;;;
2020/07/11 06:04:24;;;;;;;8.050001;7.05;;;;;;;15.57;100;95448.95;;;;
2020/07/11 06:05:24;;;;;;;8.549999;7.65;;;;;;;15.59;100;95459.05;;;;
2020/07/11 06:06:25;;;;;;;8.549999;7.65;;;;;;;15.59;100;95459.05;;;;
2020/07/11 06:07:25;;;;;;;8.549999;7.65;;;;;;;15.59;100;95459.05;;;;
2020/07/11 06:08:26;;;;;;;8.549999;7.65;;;;;;;15.59;100;95459.05;;;;
2020/07/11 06:09:27;;;;;;;8.549999;7.65;;;;;;;15.59;100;95459.05;;;;
2020/07/11 06:10:27;;;;;;;8.549999;7.65;;;;;;;15.59;100;95459.05;;;;
2020/07/11 06:11:28;;;;;;;8.549999;7.65;;;;;;;15.59;100;95459.05;;;;
2020/07/11 06:12:28;;;;;;;8.549999;7.65;;;;;;;15.59;100;95459.05;;;;
2020/07/11 06:13:29;;;;;;;8.549999;7.65;;;;;;;15.59;100;95459.05;;;;
2020/07/11 06:14:29;;;;;;;8.549999;7.65;;;;;;;15.59;100;95459.05;;;;
2020/07/11 06:15:30;;;;;;;7.45;6.75;;;;;;;15.61;100;95474.58;;;;
2020/07/11 06:16:30;;;;;;;7.45;6.75;;;;;;;15.61;100;95474.58;;;;
2020/07/11 06:17:31;;;;;;;7.45;6.75;;;;;;;15.61;100;95474.58;;;;
2020/07/11 06:18:31;;;;;;;7.45;6.75;;;;;;;15.61;100;95474.58;;;;
2020/07/11 06:19:31;;;;;;;7.45;6.75;;;;;;;15.61;100;95474.58;;;;
2020/07/11 06:20:32;;;;;;;7.45;6.75;;;;;;;15.61;100;95474.58;;;;
2020/07/11 06:21:32;;;;;;;7.45;6.75;;;;;;;15.61;100;95474.58;;;;
2020/07/11 06:22:33;;;;;;;7.45;6.75;;;;;;;15.61;100;95474.58;;;;
2020/07/11 06:23:33;;;;;;;7.45;6.75;;;;;;;15.61;100;95474.58;;;;
2020/07/11 06:24:34;;;;;;;7.45;6.75;;;;;;;15.61;100;95474.58;;;;